createdAt,value
2022-10-15T00:00:43.656Z,6.33
2022-10-15T00:03:11.039Z,6.60
2022-10-15T00:05:38.485Z,7.20
2022-10-15T00:08:08.321Z,18.40
2022-10-15T00:10:36.175Z,8.77
2022-10-15T00:13:04.225Z,6.43
2022-10-15T00:15:31.707Z,6.23
2022-10-15T00:17:59.174Z,6.67
2022-10-15T00:20:26.546Z,8.20
2022-10-15T00:22:53.937Z,10.20
2022-10-15T00:25:22.827Z,7.90
2022-10-15T00:27:50.228Z,9.03
2022-10-15T00:30:17.619Z,8.00
2022-10-15T00:32:45.086Z,6.63
2022-10-15T00:35:12.465Z,10.40
2022-10-15T00:37:39.897Z,6.03
2022-10-15T00:40:08.497Z,6.80
2022-10-15T00:42:37.224Z,7.33
2022-10-15T00:45:04.896Z,7.10
2022-10-15T00:47:36.683Z,7.30
2022-10-15T00:50:05.948Z,9.70
2022-10-15T00:52:40.592Z,7.57
2022-10-15T00:55:10.673Z,9.60
2022-10-15T00:57:39.992Z,7.77
2022-10-15T01:00:08.970Z,10.80
2022-10-15T01:02:36.371Z,7.53
2022-10-15T01:05:03.883Z,8.90
2022-10-15T01:07:31.224Z,7.97
2022-10-15T01:09:58.675Z,10.10
2022-10-15T01:12:29.052Z,9.17
2022-10-15T01:15:03.439Z,9.73
2022-10-15T01:17:34.269Z,10.03
2022-10-15T01:20:10.972Z,9.40
2022-10-15T01:22:41.662Z,8.87
2022-10-15T01:25:15.085Z,8.80
2022-10-15T01:27:43.603Z,7.87
2022-10-15T01:30:23.196Z,7.50
2022-10-15T01:33:20.812Z,7.67
2022-10-15T01:35:49.598Z,9.23
2022-10-15T01:38:21.850Z,8.03
2022-10-15T01:40:51.446Z,9.50
2022-10-15T01:45:59.127Z,9.17
2022-10-15T01:48:27.883Z,11.93
2022-10-15T01:50:57.171Z,8.13
2022-10-15T01:53:27.139Z,6.87
2022-10-15T01:55:56.172Z,5.00
2022-10-15T01:58:24.711Z,6.17
2022-10-15T02:00:53.138Z,5.27
2022-10-15T02:03:21.862Z,7.53
2022-10-15T02:05:52.240Z,11.70
2022-10-15T02:08:21.336Z,8.20
2022-10-15T02:10:52.550Z,4.80
2022-10-15T02:13:25.180Z,4.53
2022-10-15T02:15:55.890Z,9.93
2022-10-15T02:18:30.284Z,5.77
2022-10-15T02:20:59.707Z,9.33
2022-10-15T02:23:28.360Z,12.00
2022-10-15T02:25:56.603Z,9.03
2022-10-15T02:28:25.939Z,6.77
2022-10-15T02:30:53.770Z,12.33
2022-10-15T02:33:21.610Z,9.23
2022-10-15T02:35:51.303Z,15.13
2022-10-15T02:38:20.367Z,8.13
2022-10-15T02:40:48.435Z,13.23
2022-10-15T02:43:17.216Z,10.50
2022-10-15T02:45:44.585Z,5.77
2022-10-15T02:48:11.963Z,8.03
2022-10-15T02:50:39.533Z,10.97
2022-10-15T02:53:08.737Z,14.10
2022-10-15T02:55:36.171Z,8.07
2022-10-15T02:58:03.586Z,8.70
2022-10-15T03:00:30.974Z,6.10
2022-10-15T03:02:58.556Z,6.90
2022-10-15T03:05:26.222Z,5.30
2022-10-15T03:07:53.738Z,5.00
2022-10-15T03:10:22.648Z,5.03
2022-10-15T03:12:50.087Z,6.40
2022-10-15T03:15:17.623Z,9.20
2022-10-15T03:17:44.984Z,6.73
2022-10-15T03:20:12.467Z,6.97
2022-10-15T03:22:39.836Z,8.23
2022-10-15T03:25:07.534Z,9.53
2022-10-15T03:27:36.932Z,5.33
2022-10-15T03:30:04.864Z,10.93
2022-10-15T03:32:34.305Z,6.23
2022-10-15T03:35:03.644Z,5.47
2022-10-15T03:37:31.046Z,7.57
2022-10-15T03:39:58.463Z,11.60
2022-10-15T03:42:26.224Z,8.53
2022-10-15T03:44:55.239Z,7.40
2022-10-15T03:47:22.622Z,7.37
2022-10-15T03:49:50.064Z,14.10
2022-10-15T03:52:17.486Z,11.73
2022-10-15T03:54:44.858Z,11.80
2022-10-15T03:57:12.309Z,11.73
2022-10-15T03:59:40.328Z,8.00
2022-10-15T04:02:09.093Z,7.70
2022-10-15T04:04:36.566Z,11.97
2022-10-15T04:07:04.026Z,7.17
2022-10-15T04:09:31.401Z,11.30
2022-10-15T04:11:58.793Z,10.23
2022-10-15T04:14:26.181Z,13.67
2022-10-15T04:16:53.577Z,11.90
2022-10-15T04:19:22.323Z,8.27
2022-10-15T04:21:49.708Z,9.70
2022-10-15T04:24:17.213Z,8.70
2022-10-15T04:26:44.568Z,9.77
2022-10-15T04:29:12.014Z,12.33
2022-10-15T04:31:39.384Z,12.63
2022-10-15T04:34:06.867Z,14.00
2022-10-15T04:36:35.831Z,9.97
2022-10-15T04:39:03.436Z,15.43
2022-10-15T04:41:31.666Z,12.57
2022-10-15T04:43:59.339Z,12.67
2022-10-15T04:46:26.754Z,12.43
2022-10-15T04:48:57.579Z,16.23
2022-10-15T04:51:25.071Z,16.33
2022-10-15T04:53:54.127Z,17.93
2022-10-15T04:56:21.938Z,15.33
2022-10-15T04:58:50.195Z,10.93
2022-10-15T05:01:18.707Z,10.67
2022-10-15T05:03:46.964Z,11.50
2022-10-15T05:06:15.431Z,9.50
2022-10-15T05:08:43.389Z,9.50
2022-10-15T05:11:13.087Z,11.10
2022-10-15T05:13:40.502Z,14.93
2022-10-15T05:16:11.994Z,10.10
2022-10-15T05:18:39.896Z,11.30
2022-10-15T05:21:07.577Z,15.87
2022-10-15T05:23:35.629Z,11.90
2022-10-15T05:26:03.508Z,14.80
2022-10-15T05:28:32.540Z,11.10
2022-10-15T05:31:04.405Z,10.63
2022-10-15T05:33:31.768Z,10.83
2022-10-15T05:35:59.138Z,10.07
2022-10-15T05:38:26.518Z,11.80
2022-10-15T05:40:53.902Z,10.00
2022-10-15T05:43:21.372Z,10.23
2022-10-15T05:45:50.638Z,11.67
2022-10-15T05:48:18.018Z,13.70
2022-10-15T05:50:45.394Z,10.90
2022-10-15T05:53:12.798Z,12.43
2022-10-15T05:55:40.156Z,10.90
2022-10-15T05:58:07.611Z,10.20
2022-10-15T06:00:36.078Z,8.63
2022-10-15T06:03:04.915Z,10.53
2022-10-15T06:05:32.802Z,12.40
2022-10-15T06:08:00.191Z,10.07
2022-10-15T06:10:28.447Z,9.90
2022-10-15T06:12:56.003Z,9.40
2022-10-15T06:15:23.412Z,9.87
2022-10-15T06:17:52.491Z,9.60
2022-10-15T06:20:21.228Z,10.17
2022-10-15T06:22:48.769Z,11.13
2022-10-15T06:25:16.281Z,8.70
2022-10-15T06:27:43.707Z,13.63
2022-10-15T06:30:11.390Z,7.57
2022-10-15T06:32:38.779Z,8.97
2022-10-15T06:35:06.656Z,9.33
2022-10-15T06:37:35.409Z,7.27
2022-10-15T06:40:02.800Z,6.57
2022-10-15T06:42:30.195Z,8.20
2022-10-15T06:44:57.565Z,12.33
2022-10-15T06:47:25.333Z,8.17
2022-10-15T06:49:53.082Z,8.70
2022-10-15T06:52:20.648Z,9.13
2022-10-15T06:54:49.401Z,10.50
2022-10-15T06:57:16.767Z,9.10
2022-10-15T06:59:44.267Z,8.60
2022-10-15T07:02:11.685Z,10.27
2022-10-15T07:04:39.472Z,15.70
2022-10-15T07:07:06.877Z,9.67
2022-10-15T07:09:35.387Z,9.07
2022-10-15T07:12:04.339Z,10.97
2022-10-15T07:14:31.728Z,8.33
2022-10-15T07:16:59.199Z,9.23
2022-10-15T07:19:28.349Z,12.00
2022-10-15T07:21:55.761Z,7.83
2022-10-15T07:24:23.144Z,8.60
2022-10-15T07:26:50.674Z,8.30
2022-10-15T07:29:19.464Z,5.67
2022-10-15T07:31:47.091Z,6.80
2022-10-15T07:34:14.563Z,4.90
2022-10-15T07:36:41.942Z,6.10
2022-10-15T07:39:09.740Z,4.73
2022-10-15T07:41:37.241Z,4.70
2022-10-15T07:44:04.803Z,4.77
2022-10-15T07:46:33.519Z,4.63
2022-10-15T07:49:01.173Z,5.30
2022-10-15T07:51:28.602Z,4.23
2022-10-15T07:53:56.306Z,3.73
2022-10-15T07:56:23.665Z,4.43
2022-10-15T07:58:52.576Z,3.53
2022-10-15T08:01:20.724Z,6.53
2022-10-15T08:03:49.464Z,3.67
2022-10-15T08:06:17.042Z,4.27
2022-10-15T08:08:44.971Z,3.10
2022-10-15T08:11:13.226Z,3.10
2022-10-15T08:13:42.299Z,5.63
2022-10-15T08:16:10.206Z,2.63
2022-10-15T08:18:37.903Z,9.00
2022-10-15T08:21:07.773Z,3.87
2022-10-15T08:23:35.560Z,3.50
2022-10-15T08:26:03.205Z,2.90
2022-10-15T08:28:32.218Z,3.50
2022-10-15T08:31:04.177Z,2.93
2022-10-15T08:33:33.156Z,2.70
2022-10-15T08:36:00.511Z,2.30
2022-10-15T08:38:30.899Z,1.83
2022-10-15T08:40:58.966Z,1.90
2022-10-15T08:43:28.196Z,1.77
2022-10-15T08:45:57.810Z,1.80
2022-10-15T08:48:29.070Z,1.43
2022-10-15T08:50:58.335Z,7.33
2022-10-15T08:53:26.478Z,1.40
2022-10-15T08:55:56.953Z,1.20
2022-10-15T08:58:26.913Z,2.80
2022-10-15T09:00:55.406Z,2.70
2022-10-15T09:03:31.403Z,1.17
2022-10-15T09:06:03.123Z,1.00
2022-10-15T09:08:32.152Z,2.00
2022-10-15T09:11:03.885Z,1.10
2022-10-15T09:13:34.244Z,1.20
2022-10-15T09:16:04.752Z,1.20
2022-10-15T09:18:33.949Z,1.30
2022-10-15T09:21:02.788Z,1.03
2022-10-15T09:23:30.772Z,1.47
2022-10-15T09:26:01.835Z,1.50
2022-10-15T09:28:34.121Z,1.40
2022-10-15T09:31:01.564Z,1.40
2022-10-15T09:33:34.921Z,4.30
2022-10-15T09:36:07.357Z,1.47
2022-10-15T09:38:40.243Z,4.57
2022-10-15T09:41:16.410Z,1.53
2022-10-15T09:43:46.991Z,1.50
2022-10-15T09:46:14.380Z,1.87
2022-10-15T09:48:44.946Z,1.50
2022-10-15T09:51:19.413Z,4.37
2022-10-15T09:53:50.364Z,1.60
2022-10-15T09:56:19.652Z,1.67
2022-10-15T09:58:51.363Z,1.60
2022-10-15T10:01:19.633Z,1.60
2022-10-15T10:03:51.559Z,1.47
2022-10-15T10:06:18.986Z,2.10
2022-10-15T10:08:50.335Z,1.13
2022-10-15T10:11:17.827Z,2.40
2022-10-15T10:13:46.909Z,1.73
2022-10-15T10:16:16.592Z,1.30
2022-10-15T10:18:50.347Z,4.63
2022-10-15T10:21:26.362Z,1.40
2022-10-15T10:23:53.740Z,1.40
2022-10-15T10:26:21.432Z,5.53
2022-10-15T10:28:53.704Z,1.50
2022-10-15T10:31:29.990Z,1.27
2022-10-15T10:33:57.733Z,1.40
2022-10-15T10:36:26.801Z,1.30
2022-10-15T10:38:59.168Z,2.50
2022-10-15T10:41:46.507Z,4.73
2022-10-15T10:44:19.290Z,1.77
2022-10-15T10:47:01.965Z,2.10
2022-10-15T10:49:31.864Z,5.30
2022-10-15T10:51:59.258Z,2.03
2022-10-15T10:54:27.377Z,1.37
2022-10-15T10:56:55.243Z,4.07
2022-10-15T10:59:26.536Z,1.00
2022-10-15T11:01:56.630Z,1.10
2022-10-15T11:04:26.013Z,2.30
2022-10-15T11:07:04.775Z,0.90
2022-10-15T11:09:53.709Z,1.90
2022-10-15T11:12:38.452Z,1.10
2022-10-15T11:15:15.288Z,1.43
2022-10-15T11:17:49.606Z,2.43
2022-10-15T11:20:32.149Z,0.90
2022-10-15T11:23:13.657Z,1.13
2022-10-15T11:25:43.866Z,1.10
2022-10-15T11:28:25.880Z,0.93
2022-10-15T11:30:59.959Z,1.10
2022-10-15T11:33:34.862Z,1.10
2022-10-15T11:36:21.187Z,2.03
2022-10-15T11:38:52.910Z,1.23
2022-10-15T11:41:30.399Z,1.30
2022-10-15T11:44:08.649Z,0.97
2022-10-15T11:46:44.121Z,2.20
2022-10-15T11:49:25.047Z,0.70
2022-10-15T11:52:03.807Z,0.70
2022-10-15T11:54:32.975Z,1.20
2022-10-15T11:57:01.591Z,1.50
2022-10-15T11:59:33.648Z,0.70
2022-10-15T12:02:02.122Z,1.00
2022-10-15T12:04:35.359Z,1.93
2022-10-15T12:07:05.057Z,2.20
2022-10-15T12:09:33.740Z,1.03
2022-10-15T12:12:04.640Z,1.20
2022-10-15T12:14:35.560Z,1.57
2022-10-15T12:17:05.784Z,1.37
2022-10-15T12:19:38.295Z,1.43
2022-10-15T12:22:11.255Z,1.30
2022-10-15T12:24:53.447Z,1.43
2022-10-15T12:27:26.303Z,1.20
2022-10-15T12:30:12.750Z,0.90
2022-10-15T12:32:41.794Z,0.80
2022-10-15T12:35:19.937Z,0.70
2022-10-15T12:37:49.383Z,0.80
2022-10-15T12:40:27.382Z,1.23
2022-10-15T12:42:56.292Z,1.10
2022-10-15T12:45:24.676Z,0.80
2022-10-15T12:47:54.739Z,0.90
2022-10-15T12:50:24.092Z,1.90
2022-10-15T12:52:59.477Z,1.40
2022-10-15T12:55:28.343Z,0.80
2022-10-15T12:57:56.902Z,0.70
2022-10-15T13:00:38.208Z,4.40
2022-10-15T13:03:17.311Z,1.07
2022-10-15T13:05:47.895Z,3.33
2022-10-15T13:08:23.011Z,0.60
2022-10-15T13:10:51.988Z,0.60
2022-10-15T13:13:22.110Z,0.60
2022-10-15T13:15:56.099Z,0.50
2022-10-15T13:18:24.624Z,1.80
2022-10-15T13:20:56.177Z,1.90
2022-10-15T13:23:32.795Z,0.87
2022-10-15T13:26:13.126Z,1.33
2022-10-15T13:28:41.899Z,1.23
2022-10-15T13:31:14.315Z,0.70
2022-10-15T13:33:42.357Z,0.70
2022-10-15T13:36:18.418Z,0.97
2022-10-15T13:38:52.168Z,0.60
2022-10-15T13:41:23.646Z,0.80
2022-10-15T13:43:53.711Z,1.03
2022-10-15T13:46:24.017Z,3.87
2022-10-15T13:48:57.196Z,0.67
2022-10-15T13:51:27.160Z,0.70
2022-10-15T13:53:54.584Z,0.53
2022-10-15T13:56:27.891Z,0.60
2022-10-15T13:58:56.236Z,0.73
2022-10-15T14:01:24.452Z,0.90
2022-10-15T14:03:52.734Z,1.57
2022-10-15T14:06:20.831Z,0.90
2022-10-15T14:08:50.732Z,1.50
2022-10-15T14:11:18.761Z,0.60
2022-10-15T14:13:46.840Z,0.80
2022-10-15T14:16:16.370Z,0.70
2022-10-15T14:18:48.224Z,0.67
2022-10-15T14:21:18.331Z,0.70
2022-10-15T14:23:46.294Z,1.00
2022-10-15T14:26:16.951Z,1.10
2022-10-15T14:28:50.389Z,0.80
2022-10-15T14:31:29.668Z,0.70
2022-10-15T14:33:57.086Z,2.00
2022-10-15T14:36:26.000Z,0.80
2022-10-15T14:38:54.195Z,0.80
2022-10-15T14:41:30.138Z,0.73
2022-10-15T14:44:01.804Z,0.83
2022-10-15T14:46:33.183Z,1.60
2022-10-15T14:49:01.209Z,1.73
2022-10-15T14:51:29.227Z,1.53
2022-10-15T14:53:56.706Z,1.97
2022-10-15T14:56:26.062Z,1.80
2022-10-15T14:58:56.924Z,2.20
2022-10-15T15:01:24.927Z,1.27
2022-10-15T15:03:53.530Z,1.30
2022-10-15T15:06:21.165Z,2.53
2022-10-15T15:08:48.669Z,0.80
2022-10-15T15:11:18.747Z,1.90
2022-10-15T15:13:47.035Z,1.70
2022-10-15T15:16:16.641Z,1.43
2022-10-15T15:18:46.207Z,2.30
2022-10-15T15:21:15.627Z,0.80
2022-10-15T15:23:43.498Z,0.70
2022-10-15T15:26:11.207Z,0.63
2022-10-15T15:28:38.900Z,1.33
2022-10-15T15:31:07.839Z,0.77
2022-10-15T15:33:36.571Z,5.27
2022-10-15T15:36:05.578Z,0.70
2022-10-15T15:38:33.152Z,0.70
2022-10-15T15:41:01.822Z,1.10
2022-10-15T15:43:29.256Z,4.30
2022-10-15T15:45:56.735Z,1.70
2022-10-15T15:48:24.181Z,2.50
2022-10-15T15:50:52.983Z,1.07
2022-10-15T15:53:20.460Z,1.27
2022-10-15T15:55:47.869Z,5.10
2022-10-15T15:58:15.316Z,5.83
2022-10-15T16:00:42.705Z,4.23
2022-10-15T16:03:11.647Z,1.57
2022-10-15T16:05:40.727Z,1.37
2022-10-15T16:08:10.097Z,7.03
2022-10-15T16:10:37.504Z,2.50
2022-10-15T16:13:05.769Z,3.13
2022-10-15T16:15:33.166Z,1.40
2022-10-15T16:18:00.612Z,2.90
2022-10-15T16:20:28.071Z,2.07
2022-10-15T16:22:55.555Z,3.63
2022-10-15T16:25:26.533Z,5.23
2022-10-15T16:27:59.463Z,3.07
2022-10-15T16:30:26.810Z,2.00
2022-10-15T16:32:54.232Z,1.73
2022-10-15T16:35:21.810Z,4.93
2022-10-15T16:37:49.519Z,1.90
2022-10-15T16:40:18.934Z,1.90
2022-10-15T16:42:47.667Z,2.33
2022-10-15T16:45:15.124Z,1.80
2022-10-15T16:47:42.499Z,2.33
2022-10-15T16:50:10.392Z,1.93
2022-10-15T16:52:37.780Z,2.30
2022-10-15T16:55:05.388Z,1.60
2022-10-15T16:57:32.791Z,1.70
2022-10-15T17:00:01.648Z,1.87
2022-10-15T17:02:29.082Z,2.27
2022-10-15T17:04:56.523Z,3.00
2022-10-15T17:07:24.280Z,5.87
2022-10-15T17:09:51.854Z,2.70
2022-10-15T17:12:19.316Z,4.23
2022-10-15T17:14:50.641Z,4.63
2022-10-15T17:17:19.583Z,1.70
2022-10-15T17:19:47.217Z,4.57
2022-10-15T17:22:14.615Z,4.13
2022-10-15T17:24:41.958Z,2.30
2022-10-15T17:27:09.349Z,1.50
2022-10-15T17:29:36.793Z,2.07
2022-10-15T17:32:04.212Z,2.47
2022-10-15T17:34:33.068Z,3.13
2022-10-15T17:37:00.436Z,1.50
2022-10-15T17:39:27.861Z,1.47
2022-10-15T17:41:55.574Z,1.40
2022-10-15T17:44:22.967Z,1.17
2022-10-15T17:46:52.366Z,1.93
2022-10-15T17:49:19.835Z,2.87
2022-10-15T17:51:48.599Z,1.70
2022-10-15T17:54:16.008Z,1.67
2022-10-15T17:56:43.456Z,3.20
2022-10-15T17:59:12.515Z,2.93
2022-10-15T18:04:29.157Z,1.90
2022-10-15T18:06:57.886Z,2.80
2022-10-15T18:09:25.333Z,4.60
2022-10-15T18:11:52.739Z,12.80
2022-10-15T18:16:52.459Z,9.40
2022-10-15T18:19:19.967Z,7.17
2022-10-15T18:21:49.530Z,3.30
2022-10-15T18:24:21.382Z,4.50
2022-10-15T18:26:49.190Z,10.97
2022-10-15T18:29:16.597Z,7.83
2022-10-15T18:31:44.020Z,6.30
2022-10-15T18:34:11.376Z,4.87
2022-10-15T18:36:41.555Z,3.23
2022-10-15T18:39:08.948Z,5.93
2022-10-15T18:41:38.724Z,4.00
2022-10-15T18:44:06.863Z,4.90
2022-10-15T18:46:34.837Z,4.87
2022-10-15T18:49:02.747Z,3.50
2022-10-15T18:51:30.451Z,4.40
2022-10-15T18:53:57.920Z,2.53
2022-10-15T18:56:25.378Z,5.53
2022-10-15T18:58:54.146Z,2.47
2022-10-15T19:01:25.463Z,3.67
2022-10-15T19:03:52.996Z,4.37
2022-10-15T19:06:20.477Z,5.13
2022-10-15T19:08:48.397Z,3.50
2022-10-15T19:11:16.333Z,6.13
2022-10-15T19:13:43.730Z,7.30
2022-10-15T19:16:12.757Z,5.60
2022-10-15T19:18:40.113Z,3.43
2022-10-15T19:21:07.728Z,3.83
2022-10-15T19:23:35.506Z,3.90
2022-10-15T19:26:02.899Z,4.37
2022-10-15T19:28:30.633Z,3.10
2022-10-15T19:30:59.087Z,6.27
2022-10-15T19:33:28.022Z,7.07
2022-10-15T19:35:55.827Z,3.30
2022-10-15T19:38:23.892Z,7.20
2022-10-15T19:40:51.675Z,4.83
2022-10-15T19:43:19.672Z,3.37
2022-10-15T19:45:47.700Z,4.47
2022-10-15T19:48:16.323Z,7.73
2022-10-15T19:50:46.157Z,2.60
2022-10-15T19:53:16.293Z,6.87
2022-10-15T19:55:44.077Z,8.50
2022-10-15T19:58:11.546Z,8.27
2022-10-15T20:00:38.951Z,7.30
2022-10-15T20:03:08.087Z,13.20
2022-10-15T20:05:35.520Z,5.33
2022-10-15T20:08:04.266Z,8.17
2022-10-15T20:10:31.676Z,11.00
2022-10-15T20:12:59.056Z,4.20
2022-10-15T20:15:26.755Z,4.40
2022-10-15T20:17:54.123Z,13.80
2022-10-15T20:20:21.494Z,5.73
2022-10-15T20:22:48.917Z,3.23
2022-10-15T20:25:17.848Z,7.10
2022-10-15T20:27:45.256Z,8.70
2022-10-15T20:30:12.725Z,4.83
2022-10-15T20:32:40.570Z,8.63
2022-10-15T20:35:08.748Z,6.30
2022-10-15T20:37:36.175Z,5.57
2022-10-15T20:40:03.599Z,9.33
2022-10-15T20:42:34.004Z,3.50
2022-10-15T20:45:01.399Z,5.63
2022-10-15T20:47:28.842Z,2.97
2022-10-15T20:49:56.547Z,2.90
2022-10-15T20:52:24.736Z,3.77
2022-10-15T20:54:52.331Z,2.63
2022-10-15T20:57:19.735Z,6.50
2022-10-15T20:59:48.508Z,4.10
2022-10-15T21:02:16.185Z,5.43
2022-10-15T21:04:46.739Z,2.63
2022-10-15T21:07:14.145Z,5.33
2022-10-15T21:09:41.553Z,8.70
2022-10-15T21:12:10.167Z,3.07
2022-10-15T21:14:37.788Z,6.13
2022-10-15T21:17:06.555Z,4.20
2022-10-15T21:19:33.996Z,2.43
2022-10-15T21:22:01.345Z,14.17
2022-10-15T21:24:29.926Z,5.30
2022-10-15T21:26:57.860Z,2.87
2022-10-15T21:29:27.431Z,12.57
2022-10-15T21:31:54.880Z,5.70
2022-10-15T21:34:27.521Z,6.53
2022-10-15T21:36:55.678Z,4.37
2022-10-15T21:39:23.065Z,7.33
2022-10-15T21:41:50.477Z,5.10
2022-10-15T21:44:17.891Z,7.40
2022-10-15T21:46:45.321Z,4.20
2022-10-15T21:49:13.883Z,5.73
2022-10-15T21:51:42.661Z,6.37
2022-10-15T21:54:10.304Z,11.43
2022-10-15T21:56:38.427Z,4.77
2022-10-15T21:59:05.792Z,4.37
2022-10-15T22:01:34.132Z,4.90
2022-10-15T22:04:02.372Z,3.57
2022-10-15T22:06:30.053Z,4.23
2022-10-15T22:08:59.214Z,3.10
2022-10-15T22:14:00.505Z,4.20
2022-10-15T22:16:28.939Z,6.13
2022-10-15T22:18:56.591Z,5.23
2022-10-15T22:21:24.816Z,5.93
2022-10-15T22:23:53.055Z,10.47
2022-10-15T22:26:22.920Z,9.97
2022-10-15T22:28:50.475Z,10.53
2022-10-15T22:31:18.172Z,4.63
2022-10-15T22:33:46.453Z,5.00
2022-10-15T22:36:15.305Z,3.87
2022-10-15T22:38:44.195Z,7.70
2022-10-15T22:41:11.795Z,5.50
2022-10-15T22:43:40.901Z,6.47
2022-10-15T22:46:08.345Z,7.50
2022-10-15T22:48:35.760Z,5.20
2022-10-15T22:51:03.842Z,9.27
2022-10-15T22:53:31.683Z,6.57
2022-10-15T22:55:59.882Z,6.60
2022-10-15T22:58:27.660Z,9.20
2022-10-15T23:00:56.635Z,3.43
2022-10-15T23:03:24.106Z,13.63
2022-10-15T23:05:52.107Z,6.07
2022-10-15T23:08:19.594Z,7.30
2022-10-15T23:10:47.012Z,6.00
2022-10-15T23:13:14.935Z,20.63
2022-10-15T23:15:42.371Z,4.13
2022-10-15T23:18:11.153Z,3.40
2022-10-15T23:20:38.921Z,6.97
2022-10-15T23:23:06.333Z,11.67
2022-10-15T23:25:37.303Z,3.43
2022-10-15T23:28:04.888Z,4.43
2022-10-15T23:30:32.265Z,3.83
2022-10-15T23:33:01.924Z,5.93
2022-10-15T23:35:30.738Z,3.70
2022-10-15T23:37:58.137Z,7.10
2022-10-15T23:40:25.530Z,4.47
2022-10-15T23:42:52.895Z,3.97
2022-10-15T23:45:20.283Z,3.53
2022-10-15T23:47:47.698Z,7.07
2022-10-15T23:50:15.108Z,3.20
2022-10-15T23:52:43.857Z,7.63
2022-10-15T23:55:11.294Z,6.47
2022-10-15T23:57:38.728Z,5.30
